createdAt,value
2023-03-16T00:02:06.152Z,0.00
2023-03-16T00:04:37.336Z,0.00
2023-03-16T00:07:10.631Z,0.00
2023-03-16T00:09:41.466Z,-0.10
2023-03-16T00:12:19.973Z,-0.10
2023-03-16T00:14:48.404Z,-0.10
2023-03-16T00:17:21.277Z,-0.10
2023-03-16T00:19:55.364Z,-0.10
2023-03-16T00:22:23.560Z,-0.10
2023-03-16T00:24:50.323Z,-0.10
2023-03-16T00:27:17.274Z,-0.10
2023-03-16T00:29:46.915Z,-0.10
2023-03-16T00:32:25.680Z,-0.10
2023-03-16T00:34:52.980Z,-0.10
2023-03-16T00:37:23.435Z,-0.20
2023-03-16T00:39:51.614Z,-0.10
2023-03-16T00:42:19.790Z,-0.20
2023-03-16T00:44:46.992Z,-0.20
2023-03-16T00:47:14.416Z,-0.20
2023-03-16T00:49:43.890Z,-0.20
2023-03-16T00:52:14.706Z,-0.20
2023-03-16T00:54:47.039Z,-0.30
2023-03-16T00:57:17.465Z,-0.30
2023-03-16T00:59:45.465Z,-0.40
2023-03-16T01:02:13.401Z,-0.40
2023-03-16T01:04:41.380Z,-0.40
2023-03-16T01:07:09.836Z,-0.40
2023-03-16T01:09:37.295Z,-0.40
2023-03-16T01:12:14.671Z,-0.40
2023-03-16T01:14:42.330Z,-0.40
2023-03-16T01:17:09.884Z,-0.40
2023-03-16T01:19:37.582Z,-0.50
2023-03-16T01:22:05.934Z,-0.50
2023-03-16T01:24:34.687Z,-0.50
2023-03-16T01:27:02.465Z,-0.50
2023-03-16T01:29:29.797Z,-0.50
2023-03-16T01:31:58.216Z,-0.50
2023-03-16T01:34:25.214Z,-0.50
2023-03-16T01:36:52.341Z,-0.50
2023-03-16T01:39:36.281Z,-0.50
2023-03-16T01:42:03.650Z,-0.50
2023-03-16T01:44:57.160Z,-0.50
2023-03-16T01:47:30.042Z,-0.50
2023-03-16T01:49:57.761Z,-0.50
2023-03-16T01:52:33.559Z,-0.60
2023-03-16T01:55:05.798Z,-0.50
2023-03-16T01:57:36.860Z,-0.60
2023-03-16T02:00:10.899Z,-0.60
2023-03-16T02:02:55.981Z,-0.60
2023-03-16T02:05:38.864Z,-0.60
2023-03-16T02:08:06.651Z,-0.60
2023-03-16T02:10:34.842Z,-0.70
2023-03-16T02:13:02.349Z,-0.70
2023-03-16T02:15:29.493Z,-0.60
2023-03-16T02:18:00.031Z,-0.60
2023-03-16T02:20:56.821Z,-0.60
2023-03-16T02:23:25.555Z,-0.70
2023-03-16T02:26:11.012Z,-0.60
2023-03-16T02:29:05.255Z,-0.60
2023-03-16T02:31:32.556Z,-0.60
2023-03-16T02:34:00.842Z,-0.60
2023-03-16T02:36:29.848Z,-0.60
2023-03-16T02:38:56.760Z,-0.60
2023-03-16T02:41:24.428Z,-0.50
2023-03-16T02:44:20.020Z,-0.50
2023-03-16T02:46:48.468Z,-0.40
2023-03-16T02:49:33.190Z,-0.50
2023-03-16T02:52:00.210Z,-0.40
2023-03-16T02:54:27.527Z,-0.50
2023-03-16T02:56:54.369Z,-0.50
2023-03-16T02:59:22.882Z,-0.40
2023-03-16T03:01:49.788Z,-0.40
2023-03-16T03:04:16.837Z,-0.40
2023-03-16T03:06:43.879Z,-0.40
2023-03-16T03:09:14.442Z,-0.50
2023-03-16T03:11:41.696Z,-0.50
2023-03-16T03:14:08.510Z,-0.50
2023-03-16T03:16:37.375Z,-0.50
2023-03-16T03:19:04.230Z,-0.50
2023-03-16T03:21:35.701Z,-0.50
2023-03-16T03:24:02.550Z,-0.50
2023-03-16T03:26:29.445Z,-0.50
2023-03-16T03:28:59.569Z,-0.40
2023-03-16T03:31:26.428Z,-0.40
2023-03-16T03:33:53.596Z,-0.40
2023-03-16T03:36:22.549Z,-0.50
2023-03-16T03:38:49.666Z,-0.50
2023-03-16T03:41:19.160Z,-0.40
2023-03-16T03:43:46.670Z,-0.40
2023-03-16T03:46:16.338Z,-0.40
2023-03-16T03:48:43.284Z,-0.40
2023-03-16T03:51:10.121Z,-0.40
2023-03-16T03:53:45.725Z,-0.40
2023-03-16T03:56:21.543Z,-0.40
2023-03-16T03:58:48.406Z,-0.30
2023-03-16T04:01:22.947Z,-0.40
2023-03-16T04:03:50.013Z,-0.40
2023-03-16T04:06:17.163Z,-0.40
2023-03-16T04:08:44.329Z,-0.40
2023-03-16T04:11:15.019Z,-0.40
2023-03-16T04:13:41.903Z,-0.40
2023-03-16T04:16:09.755Z,-0.40
2023-03-16T04:18:42.640Z,-0.40
2023-03-16T04:21:16.718Z,-0.40
2023-03-16T04:23:46.247Z,-0.40
2023-03-16T04:26:13.472Z,-0.40
2023-03-16T04:28:43.724Z,-0.30
2023-03-16T04:31:14.313Z,-0.30
2023-03-16T04:33:44.728Z,-0.30
2023-03-16T04:36:12.152Z,-0.40
2023-03-16T04:38:40.298Z,-0.40
2023-03-16T04:41:07.969Z,-0.40
2023-03-16T04:43:39.774Z,-0.40
2023-03-16T04:46:13.759Z,-0.40
2023-03-16T04:48:40.923Z,-0.40
2023-03-16T04:51:08.949Z,-0.40
2023-03-16T04:53:39.480Z,-0.40
2023-03-16T04:56:19.489Z,-0.40
2023-03-16T04:58:51.587Z,-0.40
2023-03-16T05:01:20.916Z,-0.50
2023-03-16T05:03:52.858Z,-0.50
2023-03-16T05:06:20.895Z,-0.60
2023-03-16T05:08:48.733Z,-0.50
2023-03-16T05:11:15.713Z,-0.60
2023-03-16T05:13:52.371Z,-0.60
2023-03-16T05:16:19.806Z,-0.60
2023-03-16T05:18:46.667Z,-0.60
2023-03-16T05:21:14.434Z,-0.70
2023-03-16T05:24:04.707Z,-0.70
2023-03-16T05:26:31.581Z,-0.70
2023-03-16T05:28:58.789Z,-0.70
2023-03-16T05:31:28.814Z,-0.80
2023-03-16T05:33:59.585Z,-0.80
2023-03-16T05:36:26.555Z,-0.80
2023-03-16T05:38:59.320Z,-0.90
2023-03-16T05:41:36.472Z,-0.90
2023-03-16T05:44:08.948Z,-0.90
2023-03-16T05:46:52.092Z,-0.90
2023-03-16T05:49:19.191Z,-1.00
2023-03-16T05:51:46.191Z,-1.00
2023-03-16T05:54:13.934Z,-1.00
2023-03-16T05:56:44.796Z,-1.10
2023-03-16T05:59:11.882Z,-1.10
2023-03-16T06:01:40.130Z,-1.10
2023-03-16T06:04:07.792Z,-1.10
2023-03-16T06:06:39.029Z,-1.10
2023-03-16T06:09:12.134Z,-1.20
2023-03-16T06:11:39.141Z,-1.20
2023-03-16T06:14:06.201Z,-1.20
2023-03-16T06:16:33.184Z,-1.20
2023-03-16T06:19:00.942Z,-1.20
2023-03-16T06:21:29.439Z,-1.20
2023-03-16T06:24:03.121Z,-1.30
2023-03-16T06:26:29.977Z,-1.20
2023-03-16T06:28:57.147Z,-1.20
2023-03-16T06:31:24.049Z,-1.20
2023-03-16T06:33:51.501Z,-1.20
2023-03-16T06:36:19.235Z,-1.20
2023-03-16T06:38:51.607Z,-1.20
2023-03-16T06:41:44.709Z,-1.20
2023-03-16T06:44:14.723Z,-1.10
2023-03-16T06:46:52.185Z,-1.10
2023-03-16T06:49:19.437Z,-1.10
2023-03-16T06:51:46.875Z,-1.00
2023-03-16T06:54:14.725Z,-1.00
2023-03-16T06:56:41.762Z,-1.00
2023-03-16T06:59:09.113Z,-1.00
2023-03-16T07:01:37.500Z,-1.00
2023-03-16T07:04:04.425Z,-0.90
2023-03-16T07:06:32.910Z,-0.90
2023-03-16T07:09:01.365Z,-0.90
2023-03-16T07:11:29.545Z,-0.80
2023-03-16T07:13:58.609Z,-0.80
2023-03-16T07:16:27.364Z,-0.80
2023-03-16T07:18:57.022Z,-0.80
2023-03-16T07:21:24.805Z,-0.70
2023-03-16T07:23:51.949Z,-0.70
2023-03-16T07:26:24.236Z,-0.70
2023-03-16T07:28:58.069Z,-0.60
2023-03-16T07:31:25.438Z,-0.60
2023-03-16T07:33:52.894Z,-0.60
2023-03-16T07:36:28.724Z,-0.60
2023-03-16T07:38:59.674Z,-0.50
2023-03-16T07:41:26.977Z,-0.50
2023-03-16T07:44:07.584Z,-0.50
2023-03-16T07:46:34.561Z,-0.40
2023-03-16T07:49:01.556Z,-0.40
2023-03-16T07:51:28.614Z,-0.30
2023-03-16T07:53:55.481Z,-0.20
2023-03-16T07:56:33.660Z,-0.10
2023-03-16T07:59:07.442Z,-0.10
2023-03-16T08:01:34.420Z,0.00
2023-03-16T08:04:01.835Z,0.10
2023-03-16T08:06:29.083Z,0.10
2023-03-16T08:08:55.927Z,0.20
2023-03-16T08:11:29.867Z,0.20
2023-03-16T08:14:00.941Z,0.30
2023-03-16T08:16:47.194Z,0.40
2023-03-16T08:19:15.265Z,0.50
2023-03-16T08:22:00.444Z,0.60
2023-03-16T08:24:33.116Z,0.60
2023-03-16T08:27:03.603Z,0.70
2023-03-16T08:29:34.332Z,0.70
2023-03-16T08:32:03.039Z,0.80
2023-03-16T08:34:36.165Z,0.90
2023-03-16T08:37:04.147Z,0.90
2023-03-16T08:39:31.070Z,1.00
2023-03-16T08:41:58.214Z,1.00
2023-03-16T08:44:33.837Z,1.10
2023-03-16T08:47:01.597Z,1.10
2023-03-16T08:49:29.796Z,1.20
2023-03-16T08:52:04.379Z,1.20
2023-03-16T08:54:32.546Z,1.30
2023-03-16T08:56:59.298Z,1.30
2023-03-16T08:59:30.032Z,1.40
2023-03-16T09:01:57.989Z,1.40
2023-03-16T09:04:24.929Z,1.40
2023-03-16T09:07:05.872Z,1.50
2023-03-16T09:09:35.495Z,1.50
2023-03-16T09:12:02.824Z,1.50
2023-03-16T09:14:29.763Z,1.60
2023-03-16T09:16:56.581Z,1.60
2023-03-16T09:19:25.016Z,1.60
2023-03-16T09:21:51.785Z,1.70
2023-03-16T09:24:19.170Z,1.70
2023-03-16T09:26:45.962Z,1.70
2023-03-16T09:29:12.868Z,1.80
2023-03-16T09:31:39.643Z,1.80
2023-03-16T09:34:06.548Z,1.80
2023-03-16T09:36:33.609Z,1.80
2023-03-16T09:39:00.415Z,1.90
2023-03-16T09:41:34.312Z,1.90
2023-03-16T09:44:40.931Z,1.90
2023-03-16T09:47:11.201Z,1.90
2023-03-16T09:49:43.432Z,1.90
2023-03-16T09:52:35.114Z,2.00
2023-03-16T09:55:45.562Z,2.00
2023-03-16T09:59:08.515Z,2.00
2023-03-16T10:02:50.157Z,2.10
2023-03-16T10:05:20.583Z,2.10
2023-03-16T10:14:32.847Z,2.20
2023-03-16T10:17:29.132Z,2.30
2023-03-16T10:20:10.060Z,2.30
2023-03-16T10:22:43.920Z,2.30
2023-03-16T10:25:29.668Z,2.40
2023-03-16T10:27:57.374Z,2.40
2023-03-16T10:30:24.587Z,2.50
2023-03-16T10:32:52.403Z,2.50
2023-03-16T10:35:29.029Z,2.60
2023-03-16T10:37:57.182Z,2.60
2023-03-16T10:40:24.159Z,2.60
2023-03-16T10:42:51.070Z,2.70
2023-03-16T10:45:27.666Z,2.70
2023-03-16T10:48:05.543Z,2.80
2023-03-16T10:50:32.780Z,2.80
2023-03-16T10:53:01.497Z,2.90
2023-03-16T10:55:40.885Z,2.90
2023-03-16T10:58:09.539Z,3.00
2023-03-16T11:00:41.748Z,3.00
2023-03-16T11:03:25.906Z,3.10
2023-03-16T11:06:04.786Z,3.10
2023-03-16T11:08:37.487Z,3.20
2023-03-16T11:11:29.501Z,3.20
2023-03-16T11:14:00.955Z,3.30
2023-03-16T11:16:51.096Z,3.40
2023-03-16T11:19:24.360Z,3.40
2023-03-16T11:22:02.956Z,3.50
2023-03-16T11:25:09.258Z,3.60
2023-03-16T11:27:47.864Z,3.70
2023-03-16T11:30:46.556Z,3.70
2023-03-16T11:33:15.359Z,3.80
2023-03-16T11:35:59.241Z,3.90
2023-03-16T11:39:10.829Z,4.00
2023-03-16T11:42:18.620Z,4.10
2023-03-16T11:44:52.019Z,4.10
2023-03-16T11:47:49.824Z,4.20
2023-03-16T11:50:52.626Z,4.30
2023-03-16T11:53:49.427Z,4.40
2023-03-16T11:56:56.233Z,4.50
2023-03-16T11:59:37.624Z,4.60
2023-03-16T12:02:26.128Z,4.70
2023-03-16T12:04:59.798Z,4.80
2023-03-16T12:07:45.284Z,4.90
2023-03-16T12:10:18.630Z,5.00
2023-03-16T12:13:30.785Z,5.10
2023-03-16T12:16:04.022Z,5.20
2023-03-16T12:18:33.688Z,5.40
2023-03-16T12:21:07.563Z,5.40
2023-03-16T12:23:55.424Z,5.50
2023-03-16T12:26:29.068Z,5.70
2023-03-16T12:28:58.408Z,5.80
2023-03-16T12:31:34.329Z,5.90
2023-03-16T12:34:25.696Z,6.10
2023-03-16T12:37:33.017Z,6.20
2023-03-16T12:40:35.569Z,6.30
2023-03-16T12:43:29.375Z,6.40
2023-03-16T12:46:30.381Z,6.50
2023-03-16T12:49:01.144Z,6.70
2023-03-16T12:51:35.395Z,6.70
2023-03-16T12:54:02.526Z,6.90
2023-03-16T12:56:33.166Z,7.00
2023-03-16T12:59:03.759Z,7.10
2023-03-16T13:01:43.898Z,7.20
2023-03-16T13:04:16.655Z,7.40
2023-03-16T13:06:48.277Z,7.50
2023-03-16T13:09:22.834Z,7.70
2023-03-16T13:11:50.461Z,7.90
2023-03-16T13:14:38.450Z,8.00
2023-03-16T13:17:30.633Z,8.20
2023-03-16T13:20:06.513Z,8.40
2023-03-16T13:22:51.274Z,8.50
2023-03-16T13:25:18.814Z,8.70
2023-03-16T13:27:53.020Z,8.90
2023-03-16T13:30:24.379Z,9.00
2023-03-16T13:32:56.586Z,9.20
2023-03-16T13:35:29.113Z,9.30
2023-03-16T13:38:05.582Z,9.40
2023-03-16T13:40:32.943Z,9.60
2023-03-16T13:43:01.788Z,9.60
2023-03-16T13:45:33.329Z,9.70
2023-03-16T13:48:03.400Z,9.60
2023-03-16T13:50:34.600Z,9.50
2023-03-16T13:53:04.769Z,9.40
2023-03-16T13:55:34.617Z,9.30
2023-03-16T13:58:02.005Z,9.20
2023-03-16T14:00:35.463Z,9.10
2023-03-16T14:03:16.336Z,9.00
2023-03-16T14:05:43.887Z,9.00
2023-03-16T14:08:19.978Z,8.90
2023-03-16T14:10:47.752Z,8.80
2023-03-16T14:13:32.294Z,8.70
2023-03-16T14:16:08.494Z,8.80
2023-03-16T14:18:39.657Z,8.70
2023-03-16T14:21:14.952Z,8.70
2023-03-16T14:23:45.618Z,8.80
2023-03-16T14:26:18.629Z,8.80
2023-03-16T14:29:04.442Z,8.80
2023-03-16T14:31:40.840Z,8.80
2023-03-16T14:34:20.006Z,8.90
2023-03-16T14:36:47.520Z,8.90
2023-03-16T14:39:16.929Z,9.00
2023-03-16T14:41:45.290Z,9.00
2023-03-16T14:44:24.762Z,8.90
2023-03-16T14:46:56.299Z,9.00
2023-03-16T14:49:33.227Z,9.00
2023-03-16T14:52:12.095Z,9.00
2023-03-16T14:54:38.884Z,9.00
2023-03-16T14:57:05.953Z,9.00
2023-03-16T14:59:33.817Z,8.90
2023-03-16T15:02:03.413Z,8.90
2023-03-16T15:04:34.126Z,8.90
2023-03-16T15:07:21.742Z,8.90
2023-03-16T15:09:50.518Z,8.90
2023-03-16T15:12:19.696Z,9.00
2023-03-16T15:15:05.962Z,9.00
2023-03-16T15:17:33.233Z,9.20
2023-03-16T15:20:00.141Z,9.30
2023-03-16T15:22:37.221Z,9.40
2023-03-16T15:25:26.126Z,9.40
2023-03-16T15:27:54.262Z,9.40
2023-03-16T15:30:27.227Z,9.30
2023-03-16T15:32:54.529Z,9.20
2023-03-16T15:35:21.740Z,9.20
2023-03-16T15:37:48.860Z,9.10
2023-03-16T15:40:23.505Z,9.00
2023-03-16T15:42:51.132Z,9.00
2023-03-16T15:45:20.694Z,9.00
2023-03-16T15:47:49.087Z,9.00
2023-03-16T15:50:18.385Z,8.90
2023-03-16T15:52:54.552Z,8.90
2023-03-16T15:55:24.193Z,8.90
2023-03-16T15:57:57.597Z,8.80
2023-03-16T16:00:34.689Z,8.80
2023-03-16T16:03:03.663Z,8.80
2023-03-16T16:05:31.163Z,8.70
2023-03-16T16:07:58.608Z,8.70
2023-03-16T16:10:26.820Z,8.60
2023-03-16T16:12:55.765Z,8.60
2023-03-16T16:15:37.032Z,8.50
2023-03-16T16:18:39.584Z,8.50
2023-03-16T16:21:09.034Z,8.40
2023-03-16T16:23:37.044Z,8.40
2023-03-16T16:26:13.474Z,8.40
2023-03-16T16:28:40.637Z,8.30
2023-03-16T16:31:13.110Z,8.30
2023-03-16T16:33:40.074Z,8.30
2023-03-16T16:36:15.154Z,8.20
2023-03-16T16:38:42.060Z,8.20
2023-03-16T16:41:09.880Z,8.20
2023-03-16T16:43:42.549Z,8.20
2023-03-16T16:46:16.471Z,8.20
2023-03-16T16:48:46.995Z,8.20
2023-03-16T16:51:18.349Z,8.10
2023-03-16T16:53:46.713Z,8.10
2023-03-16T16:56:16.374Z,8.00
2023-03-16T16:58:44.264Z,7.90
2023-03-16T17:01:19.501Z,8.00
2023-03-16T17:03:46.394Z,7.90
2023-03-16T17:06:18.263Z,7.90
2023-03-16T17:08:46.648Z,7.80
2023-03-16T17:11:29.945Z,7.80
2023-03-16T17:14:00.576Z,7.80
2023-03-16T17:16:34.163Z,7.70
2023-03-16T17:19:01.319Z,7.70
2023-03-16T17:21:31.096Z,7.60
2023-03-16T17:24:00.184Z,7.60
2023-03-16T17:26:32.913Z,7.50
2023-03-16T17:29:01.990Z,7.50
2023-03-16T17:31:35.131Z,7.40
2023-03-16T17:34:06.596Z,7.40
2023-03-16T17:36:33.431Z,7.40
2023-03-16T17:39:02.054Z,7.40
2023-03-16T17:41:33.196Z,7.40
2023-03-16T17:44:10.451Z,7.30
2023-03-16T17:46:37.396Z,7.30
2023-03-16T17:49:14.601Z,7.30
2023-03-16T17:51:42.126Z,7.20
2023-03-16T17:54:08.934Z,7.20
2023-03-16T17:56:39.525Z,7.10
2023-03-16T17:59:18.588Z,7.10
2023-03-16T18:01:47.077Z,7.10
2023-03-16T18:04:31.864Z,7.00
2023-03-16T18:06:58.783Z,7.00
2023-03-16T18:09:25.834Z,6.90
2023-03-16T18:11:52.878Z,6.90
2023-03-16T18:14:35.798Z,6.90
2023-03-16T18:17:15.756Z,6.80
2023-03-16T18:19:44.094Z,6.80
2023-03-16T18:22:19.320Z,6.70
2023-03-16T18:24:48.635Z,6.70
2023-03-16T18:27:15.855Z,6.60
2023-03-16T18:29:42.877Z,6.70
2023-03-16T18:32:30.030Z,6.60
2023-03-16T18:34:57.825Z,6.60
2023-03-16T18:37:27.956Z,6.60
2023-03-16T18:39:55.163Z,6.60
2023-03-16T18:42:24.430Z,6.50
2023-03-16T18:44:51.905Z,6.50
2023-03-16T18:47:21.987Z,6.50
2023-03-16T18:49:52.840Z,6.40
2023-03-16T18:52:22.878Z,6.40
2023-03-16T18:54:50.300Z,6.40
2023-03-16T18:57:28.182Z,6.40
2023-03-16T18:59:55.278Z,6.40
2023-03-16T19:02:38.804Z,6.40
2023-03-16T19:05:18.601Z,6.30
2023-03-16T19:07:48.251Z,6.30
2023-03-16T19:10:20.677Z,6.30
2023-03-16T19:12:47.568Z,6.20
2023-03-16T19:15:26.923Z,6.20
2023-03-16T19:17:54.281Z,6.20
2023-03-16T19:20:24.602Z,6.20
2023-03-16T19:23:17.278Z,6.20
2023-03-16T19:25:45.378Z,6.10
2023-03-16T19:28:25.287Z,6.20
2023-03-16T19:30:52.100Z,6.10
2023-03-16T19:33:22.027Z,6.20
2023-03-16T19:35:52.262Z,6.10
2023-03-16T19:38:21.278Z,6.10
2023-03-16T19:40:52.042Z,6.00
2023-03-16T19:43:20.523Z,6.00
2023-03-16T19:45:48.789Z,6.00
2023-03-16T19:48:22.499Z,6.00
2023-03-16T19:50:50.564Z,5.90
2023-03-16T19:53:19.852Z,5.90
2023-03-16T19:55:48.381Z,5.90
2023-03-16T19:58:21.006Z,5.90
2023-03-16T20:00:48.337Z,5.90
2023-03-16T20:03:15.477Z,5.70
2023-03-16T20:05:42.454Z,5.80
2023-03-16T20:08:35.503Z,5.70
2023-03-16T20:11:05.639Z,5.60
2023-03-16T20:13:33.938Z,5.60
2023-03-16T20:16:01.542Z,5.60
2023-03-16T20:18:29.434Z,5.60
2023-03-16T20:20:57.042Z,5.50
2023-03-16T20:23:29.415Z,5.50
2023-03-16T20:26:02.025Z,5.40
2023-03-16T20:28:39.568Z,5.40
2023-03-16T20:31:09.143Z,5.40
2023-03-16T20:33:36.341Z,5.30
2023-03-16T20:36:03.413Z,5.30
2023-03-16T20:38:30.199Z,5.30
2023-03-16T20:40:57.739Z,5.20
2023-03-16T20:43:30.418Z,5.20
2023-03-16T20:46:03.677Z,5.20
2023-03-16T20:48:31.051Z,5.10
2023-03-16T20:50:59.956Z,5.10
2023-03-16T20:53:27.640Z,5.10
2023-03-16T20:55:55.147Z,5.00
2023-03-16T20:58:27.935Z,5.00
2023-03-16T21:00:58.178Z,5.00
2023-03-16T21:03:28.513Z,4.90
2023-03-16T21:05:59.595Z,4.90
2023-03-16T21:08:27.724Z,4.90
2023-03-16T21:10:56.704Z,4.90
2023-03-16T21:13:26.630Z,4.90
2023-03-16T21:15:56.320Z,4.90
2023-03-16T21:18:23.451Z,4.80
2023-03-16T21:20:51.211Z,4.80
2023-03-16T21:23:20.897Z,4.80
2023-03-16T21:25:54.696Z,4.80
2023-03-16T21:28:23.196Z,4.80
2023-03-16T21:30:53.048Z,4.80
2023-03-16T21:33:33.179Z,4.70
2023-03-16T21:36:01.301Z,4.70
2023-03-16T21:38:30.324Z,4.70
2023-03-16T21:40:57.826Z,4.80
2023-03-16T21:43:25.163Z,4.70
2023-03-16T21:45:52.669Z,4.70
2023-03-16T21:48:23.238Z,4.80
2023-03-16T21:50:52.320Z,4.70
2023-03-16T21:53:27.143Z,4.70
2023-03-16T21:55:55.343Z,4.70
2023-03-16T21:58:23.656Z,4.70
2023-03-16T22:00:55.082Z,4.80
2023-03-16T22:03:37.892Z,4.80
2023-03-16T22:06:14.767Z,4.80
2023-03-16T22:08:41.705Z,4.80
2023-03-16T22:11:18.119Z,4.90
2023-03-16T22:13:45.282Z,4.90
2023-03-16T22:16:24.643Z,4.80
2023-03-16T22:18:56.202Z,4.90
2023-03-16T22:21:36.439Z,4.90
2023-03-16T22:24:13.723Z,4.90
2023-03-16T22:26:40.916Z,4.80
2023-03-16T22:29:28.795Z,4.90
2023-03-16T22:32:01.192Z,4.80
2023-03-16T22:34:31.254Z,4.80
2023-03-16T22:36:59.328Z,4.80
2023-03-16T22:39:27.076Z,4.80
2023-03-16T22:41:53.936Z,4.80
2023-03-16T22:44:23.468Z,4.70
2023-03-16T22:46:50.735Z,4.70
2023-03-16T22:49:27.255Z,4.60
2023-03-16T22:51:57.399Z,4.80
2023-03-16T22:54:29.202Z,4.80
2023-03-16T22:56:56.795Z,4.80
2023-03-16T22:59:26.640Z,4.80
2023-03-16T23:01:53.563Z,4.80
2023-03-16T23:04:23.519Z,4.80
2023-03-16T23:06:52.729Z,4.80
2023-03-16T23:09:21.746Z,4.80
2023-03-16T23:11:54.023Z,4.80
2023-03-16T23:14:27.757Z,4.70
2023-03-16T23:16:54.978Z,4.80
2023-03-16T23:19:34.026Z,4.80
2023-03-16T23:22:06.682Z,4.80
2023-03-16T23:24:34.256Z,4.80
2023-03-16T23:27:01.797Z,4.70
2023-03-16T23:29:29.242Z,4.70
2023-03-16T23:31:56.602Z,4.70
2023-03-16T23:34:25.498Z,4.70
2023-03-16T23:36:52.779Z,4.60
2023-03-16T23:39:19.832Z,4.60
2023-03-16T23:41:48.904Z,4.60
2023-03-16T23:44:19.526Z,4.60
2023-03-16T23:46:46.918Z,4.60
2023-03-16T23:49:24.169Z,4.60
2023-03-16T23:51:52.756Z,4.60
2023-03-16T23:54:23.152Z,4.60
2023-03-16T23:56:50.996Z,4.50
2023-03-16T23:59:19.208Z,4.50
